createdAt,value
2023-02-17T00:00:54.796Z,37.23
2023-02-17T00:06:19.896Z,42.90
2023-02-17T00:11:42.270Z,36.50
2023-02-17T00:17:04.436Z,37.27
2023-02-17T00:22:26.987Z,40.03
2023-02-17T00:27:49.056Z,40.63
2023-02-17T00:33:11.480Z,39.40
2023-02-17T00:38:34.715Z,45.60
2023-02-17T00:43:56.996Z,42.60
2023-02-17T00:49:25.374Z,39.93
2023-02-17T00:54:47.736Z,44.47
2023-02-17T01:00:10.327Z,45.93
2023-02-17T01:05:33.187Z,43.33
2023-02-17T01:10:57.809Z,43.43
2023-02-17T01:16:28.644Z,47.17
2023-02-17T01:21:54.611Z,46.60
2023-02-17T01:27:17.086Z,47.60
2023-02-17T01:32:39.257Z,47.73
2023-02-17T01:38:01.766Z,45.10
2023-02-17T01:43:24.262Z,46.17
2023-02-17T01:48:51.279Z,46.90
2023-02-17T01:54:19.016Z,52.83
2023-02-17T01:59:42.481Z,46.40
2023-02-17T02:05:05.857Z,47.97
2023-02-17T02:10:28.287Z,49.17
2023-02-17T02:16:14.844Z,49.93
2023-02-17T02:21:49.409Z,44.43
2023-02-17T02:27:44.129Z,46.87
2023-02-17T02:33:15.301Z,45.70
2023-02-17T02:38:42.938Z,49.53
2023-02-17T02:44:07.988Z,47.93
2023-02-17T02:49:32.943Z,46.43
2023-02-17T02:55:12.200Z,49.07
2023-02-17T03:01:14.358Z,54.77
2023-02-17T03:06:56.901Z,52.17
2023-02-17T03:12:21.011Z,54.83
2023-02-17T03:17:43.451Z,49.30
2023-02-17T03:23:07.523Z,48.77
2023-02-17T03:28:29.996Z,58.57
2023-02-17T03:33:56.398Z,60.53
2023-02-17T03:39:19.036Z,54.60
2023-02-17T03:44:41.181Z,54.70
2023-02-17T03:50:04.186Z,59.23
2023-02-17T03:55:26.778Z,62.60
2023-02-17T04:00:49.154Z,54.60
2023-02-17T04:06:11.646Z,61.20
2023-02-17T04:11:33.932Z,61.57
2023-02-17T04:16:56.440Z,59.87
2023-02-17T04:22:18.923Z,56.07
2023-02-17T04:27:41.443Z,56.43
2023-02-17T04:33:04.127Z,51.50
2023-02-17T04:38:28.135Z,56.47
2023-02-17T04:43:50.502Z,57.20
2023-02-17T04:49:12.967Z,52.00
2023-02-17T04:54:35.750Z,56.40
2023-02-17T04:59:57.924Z,54.33
2023-02-17T05:05:21.262Z,59.53
2023-02-17T05:10:43.752Z,48.90
2023-02-17T05:16:06.463Z,59.97
2023-02-17T05:21:29.050Z,53.80
2023-02-17T05:26:51.699Z,49.00
2023-02-17T05:32:14.259Z,50.37
2023-02-17T05:37:37.241Z,52.67
2023-02-17T05:43:00.070Z,52.13
2023-02-17T05:48:22.356Z,48.00
2023-02-17T05:53:45.102Z,49.43
2023-02-17T05:59:10.124Z,56.50
2023-02-17T06:04:33.647Z,59.77
2023-02-17T06:09:56.057Z,48.77
2023-02-17T06:15:18.688Z,57.80
2023-02-17T06:20:41.036Z,50.03
2023-02-17T06:26:03.354Z,57.60
2023-02-17T06:31:25.909Z,55.93
2023-02-17T06:36:48.306Z,52.47
2023-02-17T06:42:11.155Z,54.37
2023-02-17T06:47:35.954Z,59.87
2023-02-17T06:52:58.160Z,53.73
2023-02-17T06:58:20.312Z,57.17
2023-02-17T07:03:42.952Z,53.00
2023-02-17T07:09:05.150Z,58.97
2023-02-17T07:14:28.557Z,52.10
2023-02-17T07:19:51.247Z,53.10
2023-02-17T07:25:13.820Z,51.77
2023-02-17T07:30:40.161Z,50.17
2023-02-17T07:36:08.194Z,49.53
2023-02-17T07:41:32.917Z,48.80
2023-02-17T07:47:03.726Z,47.37
2023-02-17T07:52:26.111Z,50.67
2023-02-17T07:57:48.529Z,41.57
2023-02-17T08:03:10.843Z,51.23
2023-02-17T08:08:51.512Z,45.73
2023-02-17T08:14:14.312Z,46.57
2023-02-17T08:19:47.366Z,45.17
2023-02-17T08:25:10.873Z,39.80
2023-02-17T08:30:36.104Z,35.83
2023-02-17T08:35:58.534Z,40.37
2023-02-17T08:41:29.712Z,35.90
2023-02-17T08:46:52.776Z,37.17
2023-02-17T08:52:15.170Z,35.30
2023-02-17T08:57:37.386Z,39.67
2023-02-17T09:03:00.165Z,33.87
2023-02-17T09:08:23.426Z,33.83
2023-02-17T09:13:45.928Z,32.73
2023-02-17T09:19:08.678Z,30.57
2023-02-17T09:24:33.143Z,31.50
2023-02-17T09:29:55.597Z,32.03
2023-02-17T09:35:18.888Z,31.67
2023-02-17T09:40:40.959Z,26.33
2023-02-17T09:46:12.303Z,30.40
2023-02-17T09:51:43.087Z,32.73
2023-02-17T09:57:09.078Z,26.30
2023-02-17T10:03:02.260Z,26.73
2023-02-17T10:08:30.914Z,27.80
2023-02-17T10:13:58.460Z,28.73
2023-02-17T10:19:34.717Z,26.80
2023-02-17T10:24:57.440Z,30.77
2023-02-17T10:30:30.995Z,27.13
2023-02-17T10:36:01.864Z,30.03
2023-02-17T10:41:27.966Z,26.87
2023-02-17T10:46:53.771Z,30.80
2023-02-17T10:52:22.979Z,27.27
2023-02-17T10:57:47.737Z,27.97
2023-02-17T11:03:20.494Z,29.00
2023-02-17T11:08:51.226Z,30.37
2023-02-17T11:14:24.375Z,35.63
2023-02-17T11:20:04.908Z,31.60
2023-02-17T11:25:30.129Z,32.50
2023-02-17T11:30:58.639Z,27.10
2023-02-17T11:36:29.732Z,28.70
2023-02-17T11:41:53.080Z,27.17
2023-02-17T11:47:29.922Z,27.90
2023-02-17T11:53:17.856Z,28.30
2023-02-17T11:59:07.261Z,24.20
2023-02-17T12:04:48.138Z,28.80
2023-02-17T12:10:26.292Z,25.67
2023-02-17T12:15:58.848Z,23.23
2023-02-17T12:21:37.209Z,21.67
2023-02-17T12:27:18.159Z,20.93
2023-02-17T12:33:00.594Z,21.20
2023-02-17T12:38:32.319Z,22.23
2023-02-17T12:44:02.171Z,18.90
2023-02-17T12:49:55.499Z,16.30
2023-02-17T12:55:27.411Z,14.90
2023-02-17T13:01:04.408Z,16.57
2023-02-17T13:06:44.108Z,13.67
2023-02-17T13:12:32.777Z,16.03
2023-02-17T13:18:03.070Z,14.33
2023-02-17T13:23:40.676Z,11.93
2023-02-17T13:29:21.478Z,15.00
2023-02-17T13:34:46.508Z,10.33
2023-02-17T13:40:29.278Z,8.43
2023-02-17T13:46:00.960Z,10.10
2023-02-17T13:51:29.534Z,9.07
2023-02-17T13:56:53.168Z,7.23
2023-02-17T14:02:35.163Z,8.40
2023-02-17T14:08:13.607Z,8.67
2023-02-17T14:13:38.772Z,8.53
2023-02-17T14:19:12.853Z,8.57
2023-02-17T14:24:37.535Z,10.53
2023-02-17T14:29:59.751Z,10.07
2023-02-17T14:35:23.983Z,8.40
2023-02-17T14:40:46.578Z,6.87
2023-02-17T14:46:09.492Z,7.43
2023-02-17T14:51:35.529Z,8.97
2023-02-17T14:57:05.251Z,8.93
2023-02-17T15:02:28.118Z,13.10
2023-02-17T15:07:50.734Z,18.17
2023-02-17T15:13:19.048Z,11.20
2023-02-17T15:18:41.643Z,9.90
2023-02-17T15:24:14.080Z,10.20
2023-02-17T15:29:36.695Z,11.10
2023-02-17T15:35:00.012Z,14.53
2023-02-17T15:40:27.749Z,12.43
2023-02-17T15:45:51.760Z,15.10
2023-02-17T15:51:15.326Z,12.57
2023-02-17T15:56:45.278Z,15.40
2023-02-17T16:02:34.265Z,15.23
2023-02-17T16:07:57.184Z,15.20
2023-02-17T16:13:19.821Z,17.93
2023-02-17T16:18:42.385Z,15.17
2023-02-17T16:24:05.258Z,14.00
2023-02-17T16:29:27.989Z,12.93
2023-02-17T16:34:50.864Z,21.93
2023-02-17T16:40:16.376Z,12.97
2023-02-17T16:45:48.921Z,16.93
2023-02-17T16:51:11.485Z,14.77
2023-02-17T16:56:43.231Z,15.03
2023-02-17T17:02:05.503Z,15.43
2023-02-17T17:07:30.307Z,14.03
2023-02-17T17:12:53.271Z,14.07
2023-02-17T17:18:21.564Z,10.43
2023-02-17T17:23:46.433Z,7.03
2023-02-17T17:29:12.396Z,8.97
2023-02-17T17:34:34.532Z,5.60
2023-02-17T17:39:56.699Z,6.10
2023-02-17T17:45:19.268Z,6.43
2023-02-17T17:50:42.710Z,7.73
2023-02-17T17:56:06.180Z,6.60
2023-02-17T18:01:29.198Z,5.33
2023-02-17T18:06:55.347Z,6.57
2023-02-17T18:12:19.508Z,4.90
2023-02-17T18:17:42.424Z,5.53
2023-02-17T18:23:05.284Z,8.73
2023-02-17T18:28:27.672Z,6.50
2023-02-17T18:33:50.304Z,3.73
2023-02-17T18:39:12.404Z,6.43
2023-02-17T18:44:34.884Z,4.23
2023-02-17T18:49:57.384Z,8.50
2023-02-17T18:55:20.024Z,7.27
2023-02-17T19:00:42.213Z,5.13
2023-02-17T19:06:12.836Z,8.03
2023-02-17T19:11:35.315Z,3.13
2023-02-17T19:16:57.890Z,3.97
2023-02-17T19:22:20.672Z,3.77
2023-02-17T19:27:43.403Z,4.47
2023-02-17T19:33:05.787Z,2.13
2023-02-17T19:38:29.761Z,2.70
2023-02-17T19:43:52.248Z,2.70
2023-02-17T19:49:14.853Z,7.03
2023-02-17T19:54:37.437Z,4.00
2023-02-17T20:00:00.066Z,3.97
2023-02-17T20:05:22.883Z,6.20
2023-02-17T20:10:45.091Z,6.97
2023-02-17T20:16:10.975Z,9.80
2023-02-17T20:21:36.531Z,5.73
2023-02-17T20:26:59.289Z,7.57
2023-02-17T20:32:22.223Z,6.97
2023-02-17T20:37:44.704Z,8.77
2023-02-17T20:43:07.102Z,8.07
2023-02-17T20:48:29.830Z,9.57
2023-02-17T20:53:52.373Z,6.60
2023-02-17T20:59:15.329Z,4.87
2023-02-17T21:04:37.808Z,14.53
2023-02-17T21:10:00.082Z,7.37
2023-02-17T21:15:22.911Z,5.83
2023-02-17T21:20:45.173Z,13.73
2023-02-17T21:26:09.354Z,11.97
2023-02-17T21:31:32.075Z,12.47
2023-02-17T21:36:54.845Z,8.33
2023-02-17T21:42:39.442Z,13.30
2023-02-17T21:48:01.555Z,4.10
2023-02-17T21:53:23.775Z,6.47
2023-02-17T21:58:47.645Z,14.63
2023-02-17T22:04:10.150Z,4.07
2023-02-17T22:09:32.503Z,4.70
2023-02-17T22:14:54.982Z,13.50
2023-02-17T22:20:17.352Z,6.10
2023-02-17T22:25:42.759Z,12.70
2023-02-17T22:31:06.195Z,7.80
2023-02-17T22:36:32.058Z,10.87
2023-02-17T22:41:54.406Z,7.30
2023-02-17T22:47:16.861Z,5.03
2023-02-17T22:52:39.389Z,10.73
2023-02-17T22:58:01.588Z,6.40
2023-02-17T23:03:24.069Z,8.73
2023-02-17T23:08:47.983Z,10.37
2023-02-17T23:14:11.603Z,7.77
2023-02-17T23:19:33.833Z,7.33
2023-02-17T23:24:56.282Z,12.97
2023-02-17T23:30:21.053Z,5.10
2023-02-17T23:35:47.936Z,10.40
2023-02-17T23:41:11.141Z,12.87
2023-02-17T23:46:34.044Z,5.73
2023-02-17T23:51:56.196Z,7.63
2023-02-17T23:57:18.416Z,9.17
